Time,TemperatureF,DewpointF,PressureIn,WindDirection,WindDirectionDegrees,WindSpeedMPH,WindSpeedGustMPH,Humidity,HourlyPrecipIn,Conditions,Clouds,dailyrainin,SolarRadiationWatts/m^2,SoftwareType,DateUTC
2013-10-06 00:02:00,25.0,16.0,-100.00,NNW,329,4.0,8.0,68,0.00,,,0.00,0.000000,,2013-10-06 06:02:00,
2013-10-06 00:42:00,24.0,15.0,-100.00,WNW,290,3.0,9.0,69,0.00,,,0.00,0.000000,,2013-10-06 06:42:00,
2013-10-06 00:52:00,24.0,15.0,-100.00,WNW,290,3.0,9.0,69,0.00,,,0.00,0.000000,,2013-10-06 06:52:00,
2013-10-06 01:02:00,24.0,15.0,-100.00,WNW,290,3.0,9.0,69,0.00,,,0.00,0.000000,,2013-10-06 07:02:00,
2013-10-06 01:43:00,24.0,14.0,-100.00,North,3,3.0,9.0,65,0.00,,,0.00,0.000000,,2013-10-06 07:43:00,
2013-10-06 01:52:00,24.0,14.0,-100.00,North,3,3.0,9.0,65,0.00,,,0.00,0.000000,,2013-10-06 07:52:00,
2013-10-06 02:02:00,24.0,14.0,-100.00,North,3,3.0,9.0,65,0.00,,,0.00,0.000000,,2013-10-06 08:02:00,
2013-10-06 02:42:00,24.0,15.0,-100.00,NNW,343,5.0,9.0,69,0.00,,,0.00,0.000000,,2013-10-06 08:42:00,
2013-10-06 02:53:00,24.0,15.0,-100.00,NNW,343,5.0,9.0,69,0.00,,,0.00,0.000000,,2013-10-06 08:53:00,
2013-10-06 03:01:00,24.0,15.0,-100.00,NNW,343,5.0,9.0,69,0.00,,,0.00,0.000000,,2013-10-06 09:01:00,
2013-10-06 03:43:00,23.0,14.0,-100.00,NNW,342,4.0,10.0,69,0.00,,,0.00,0.000000,,2013-10-06 09:43:00,
2013-10-06 03:53:00,23.0,14.0,-100.00,NNW,342,4.0,10.0,69,0.00,,,0.00,0.000000,,2013-10-06 09:53:00,
2013-10-06 04:03:00,23.0,14.0,-100.00,NNW,342,4.0,10.0,69,0.00,,,0.00,0.000000,,2013-10-06 10:03:00,
2013-10-06 04:43:00,21.0,12.0,-100.00,NW,315,3.0,7.0,67,0.00,,,0.00,0.000000,,2013-10-06 10:43:00,
2013-10-06 04:53:00,21.0,12.0,-100.00,NW,315,3.0,7.0,67,0.00,,,0.00,0.000000,,2013-10-06 10:53:00,
2013-10-06 05:02:00,21.0,12.0,-100.00,NW,315,3.0,7.0,67,0.00,,,0.00,0.000000,,2013-10-06 11:02:00,
2013-10-06 05:42:00,20.0,12.0,-100.00,North,356,4.0,8.0,70,0.00,,,0.00,0.000000,,2013-10-06 11:42:00,
2013-10-06 05:52:00,20.0,12.0,-100.00,North,356,4.0,8.0,70,0.00,,,0.00,0.000000,,2013-10-06 11:52:00,
2013-10-06 06:02:00,20.0,12.0,-100.00,North,356,4.0,8.0,70,0.00,,,0.00,0.000000,,2013-10-06 12:02:00,
2013-10-06 06:42:00,20.0,11.0,-100.00,NNW,328,3.0,8.0,69,0.00,,,0.00,0.000000,,2013-10-06 12:42:00,
2013-10-06 06:52:00,20.0,11.0,-100.00,NNW,328,3.0,8.0,69,0.00,,,0.00,0.000000,,2013-10-06 12:52:00,
2013-10-06 07:02:00,20.0,11.0,-100.00,NNW,328,3.0,8.0,69,0.00,,,0.00,0.000000,,2013-10-06 13:02:00,
2013-10-06 07:42:00,20.0,11.0,-100.00,NW,320,2.0,4.0,67,0.00,,,0.00,1.000000,,2013-10-06 13:42:00,
2013-10-06 07:52:00,20.0,11.0,-100.00,NW,320,2.0,4.0,67,0.00,,,0.00,1.000000,,2013-10-06 13:52:00,
2013-10-06 08:02:00,20.0,11.0,-100.00,NW,320,2.0,4.0,67,0.00,,,0.00,1.000000,,2013-10-06 14:02:00,
2013-10-06 08:42:00,27.0,14.0,-100.00,NNE,18,1.0,4.0,58,0.00,,,0.00,73.000000,,2013-10-06 14:42:00,
2013-10-06 08:52:00,27.0,14.0,-100.00,NNE,18,1.0,4.0,58,0.00,,,0.00,73.000000,,2013-10-06 14:52:00,
2013-10-06 09:02:00,27.0,14.0,-100.00,NNE,18,1.0,4.0,58,0.00,,,0.00,73.000000,,2013-10-06 15:02:00,
2013-10-06 09:54:00,38.0,18.0,-100.00,East,86,2.0,4.0,44,0.00,,,0.00,286.000000,,2013-10-06 15:54:00,
2013-10-06 10:03:00,38.0,18.0,-100.00,East,86,2.0,4.0,44,0.00,,,0.00,286.000000,,2013-10-06 16:03:00,
2013-10-06 10:43:00,43.0,19.0,-100.00,East,89,4.0,7.0,38,0.00,,,0.00,545.000000,,2013-10-06 16:43:00,
2013-10-06 10:53:00,43.0,19.0,-100.00,East,89,4.0,7.0,38,0.00,,,0.00,545.000000,,2013-10-06 16:53:00,
2013-10-06 11:02:00,43.0,19.0,-100.00,East,89,4.0,7.0,38,0.00,,,0.00,545.000000,,2013-10-06 17:02:00,
2013-10-06 11:42:00,49.0,21.0,-100.00,NNE,18,7.0,13.0,33,0.00,,,0.00,729.000000,,2013-10-06 17:42:00,
2013-10-06 11:52:00,49.0,21.0,-100.00,NNE,18,7.0,13.0,33,0.00,,,0.00,729.000000,,2013-10-06 17:52:00,
2013-10-06 12:02:00,49.0,21.0,-100.00,NNE,18,7.0,13.0,33,0.00,,,0.00,729.000000,,2013-10-06 18:02:00,
2013-10-06 12:43:00,52.0,22.0,-100.00,NNE,18,8.0,15.0,31,0.00,,,0.00,852.000000,,2013-10-06 18:43:00,
2013-10-06 12:52:00,52.0,22.0,-100.00,NNE,18,8.0,15.0,31,0.00,,,0.00,852.000000,,2013-10-06 18:52:00,
2013-10-06 13:01:00,52.0,22.0,-100.00,NNE,18,8.0,15.0,31,0.00,,,0.00,852.000000,,2013-10-06 19:01:00,
2013-10-06 13:42:00,53.0,22.0,-100.00,NNE,21,9.0,18.0,29,0.00,,,0.00,909.000000,,2013-10-06 19:42:00,
2013-10-06 13:53:00,53.0,22.0,-100.00,NNE,21,9.0,18.0,29,0.00,,,0.00,909.000000,,2013-10-06 19:53:00,
2013-10-06 14:02:00,53.0,22.0,-100.00,NNE,21,9.0,18.0,29,0.00,,,0.00,909.000000,,2013-10-06 20:02:00,
2013-10-06 14:42:00,56.0,23.0,-100.00,NNE,20,6.0,16.0,28,0.00,,,0.00,894.000000,,2013-10-06 20:42:00,
2013-10-06 14:52:00,56.0,23.0,-100.00,NNE,20,6.0,16.0,28,0.00,,,0.00,894.000000,,2013-10-06 20:52:00,
2013-10-06 15:01:00,56.0,23.0,-100.00,NNE,20,6.0,16.0,28,0.00,,,0.00,894.000000,,2013-10-06 21:01:00,
2013-10-06 15:44:00,56.0,23.0,-100.00,NNE,32,7.0,14.0,27,0.00,,,0.00,807.000000,,2013-10-06 21:44:00,
2013-10-06 15:55:00,56.0,23.0,-100.00,NNE,32,7.0,14.0,27,0.00,,,0.00,807.000000,,2013-10-06 21:55:00,
2013-10-06 16:04:00,56.0,23.0,-100.00,NNE,32,7.0,14.0,27,0.00,,,0.00,807.000000,,2013-10-06 22:04:00,
2013-10-06 16:43:00,56.0,22.0,-100.00,North,6,8.0,17.0,26,0.00,,,0.00,658.000000,,2013-10-06 22:43:00,
2013-10-06 16:54:00,56.0,22.0,-100.00,North,6,8.0,17.0,26,0.00,,,0.00,658.000000,,2013-10-06 22:54:00,
2013-10-06 17:03:00,56.0,22.0,-100.00,North,6,8.0,17.0,26,0.00,,,0.00,658.000000,,2013-10-06 23:03:00,
2013-10-06 17:42:00,54.0,22.0,-100.00,North,9,7.0,17.0,28,0.00,,,0.00,458.000000,,2013-10-06 23:42:00,
2013-10-06 17:53:00,54.0,22.0,-100.00,North,9,7.0,17.0,28,0.00,,,0.00,458.000000,,2013-10-06 23:53:00,
2013-10-06 18:02:00,54.0,22.0,-100.00,North,9,7.0,17.0,28,0.00,,,0.00,458.000000,,2013-10-07 00:02:00,
2013-10-06 18:42:00,50.0,21.0,-100.00,NNE,20,5.0,12.0,32,0.00,,,0.00,119.000000,,2013-10-07 00:42:00,
2013-10-06 18:52:00,50.0,21.0,-100.00,NNE,20,5.0,12.0,32,0.00,,,0.00,119.000000,,2013-10-07 00:52:00,
2013-10-06 19:02:00,50.0,21.0,-100.00,NNE,20,5.0,12.0,32,0.00,,,0.00,119.000000,,2013-10-07 01:02:00,
2013-10-06 19:42:00,44.0,21.0,-100.00,North,352,4.0,9.0,39,0.00,,,0.00,6.000000,,2013-10-07 01:42:00,
2013-10-06 19:53:00,44.0,21.0,-100.00,North,352,4.0,9.0,39,0.00,,,0.00,6.000000,,2013-10-07 01:53:00,
2013-10-06 20:02:00,44.0,21.0,-100.00,North,352,4.0,9.0,39,0.00,,,0.00,6.000000,,2013-10-07 02:02:00,
2013-10-06 20:42:00,40.0,23.0,-100.00,NNW,337,6.0,11.0,50,0.00,,,0.00,0.000000,,2013-10-07 02:42:00,
2013-10-06 20:53:00,40.0,23.0,-100.00,NNW,337,6.0,11.0,50,0.00,,,0.00,0.000000,,2013-10-07 02:53:00,
2013-10-06 21:02:00,40.0,23.0,-100.00,NNW,337,6.0,11.0,50,0.00,,,0.00,0.000000,,2013-10-07 03:02:00,
2013-10-06 21:44:00,39.0,24.0,-100.00,North,351,7.0,11.0,54,0.00,,,0.00,0.000000,,2013-10-07 03:44:00,
2013-10-06 21:54:00,39.0,24.0,-100.00,North,351,7.0,11.0,54,0.00,,,0.00,0.000000,,2013-10-07 03:54:00,
2013-10-06 22:04:00,39.0,24.0,-100.00,North,351,7.0,11.0,54,0.00,,,0.00,0.000000,,2013-10-07 04:04:00,
2013-10-06 22:44:00,33.0,22.0,-100.00,NNW,338,4.0,9.0,64,0.00,,,0.00,0.000000,,2013-10-07 04:44:00,
2013-10-06 22:53:00,33.0,22.0,-100.00,NNW,338,4.0,9.0,64,0.00,,,0.00,0.000000,,2013-10-07 04:53:00,
2013-10-06 23:03:00,33.0,22.0,-100.00,NNW,338,4.0,9.0,64,0.00,,,0.00,0.000000,,2013-10-07 05:03:00,
2013-10-06 23:43:00,31.0,22.0,-100.00,NW,309,3.0,5.0,69,0.00,,,0.00,0.000000,,2013-10-07 05:43:00,
2013-10-06 23:52:00,31.0,22.0,-100.00,NW,309,3.0,5.0,69,0.00,,,0.00,0.000000,,2013-10-07 05:52:00,